sensor_id;sensor_type;location;lat;lon;timestamp;pressure;altitude;pressure_sealevel;temperature;humidity
57290;BME280;43523;53.022;-1.178;2023-04-02T00:00:26;101302.89;;;4.33;100.00
57290;BME280;43523;53.022;-1.178;2023-04-02T00:01:35;101303.41;;;4.46;100.00
57290;BME280;43523;53.022;-1.178;2023-04-02T00:02:45;101303.93;;;4.35;100.00
57290;BME280;43523;53.022;-1.178;2023-04-02T00:04:21;101306.50;;;4.07;100.00
57290;BME280;43523;53.022;-1.178;2023-04-02T00:05:36;101307.09;;;4.15;100.00
57290;BME280;43523;53.022;-1.178;2023-04-02T00:06:39;101308.73;;;4.41;100.00
57290;BME280;43523;53.022;-1.178;2023-04-02T00:07:41;101310.03;;;4.30;100.00
57290;BME280;43523;53.022;-1.178;2023-04-02T00:08:44;101311.11;;;4.07;100.00
57290;BME280;43523;53.022;-1.178;2023-04-02T00:09:47;101313.07;;;4.18;100.00
57290;BME280;43523;53.022;-1.178;2023-04-02T00:10:51;101313.90;;;4.47;100.00
57290;BME280;43523;53.022;-1.178;2023-04-02T00:11:55;101312.78;;;4.60;100.00
57290;BME280;43523;53.022;-1.178;2023-04-02T00:13:00;101312.37;;;4.71;100.00
57290;BME280;43523;53.022;-1.178;2023-04-02T00:14:05;101315.50;;;4.66;100.00
57290;BME280;43523;53.022;-1.178;2023-04-02T00:15:15;101317.32;;;4.70;100.00
57290;BME280;43523;53.022;-1.178;2023-04-02T00:16:21;101317.87;;;4.55;100.00
57290;BME280;43523;53.022;-1.178;2023-04-02T00:17:25;101321.80;;;4.68;100.00
57290;BME280;43523;53.022;-1.178;2023-04-02T00:18:27;101320.29;;;4.58;100.00
57290;BME280;43523;53.022;-1.178;2023-04-02T00:19:34;101322.76;;;4.75;100.00
57290;BME280;43523;53.022;-1.178;2023-04-02T00:20:40;101322.51;;;4.61;100.00
57290;BME280;43523;53.022;-1.178;2023-04-02T00:21:45;101326.54;;;4.39;100.00
57290;BME280;43523;53.022;-1.178;2023-04-02T00:22:48;101327.43;;;4.71;100.00
57290;BME280;43523;53.022;-1.178;2023-04-02T00:23:53;101329.17;;;4.61;100.00
57290;BME280;43523;53.022;-1.178;2023-04-02T00:24:56;101332.18;;;5.25;100.00
57290;BME280;43523;53.022;-1.178;2023-04-02T00:25:58;101332.95;;;4.68;100.00
57290;BME280;43523;53.022;-1.178;2023-04-02T00:27:00;101331.76;;;4.59;100.00
57290;BME280;43523;53.022;-1.178;2023-04-02T00:28:03;101333.54;;;4.49;100.00
57290;BME280;43523;53.022;-1.178;2023-04-02T00:29:06;101332.41;;;4.79;100.00
57290;BME280;43523;53.022;-1.178;2023-04-02T00:30:11;101331.80;;;4.72;100.00
57290;BME280;43523;53.022;-1.178;2023-04-02T00:31:14;101331.30;;;4.33;100.00
57290;BME280;43523;53.022;-1.178;2023-04-02T00:32:22;101332.65;;;4.61;100.00
57290;BME280;43523;53.022;-1.178;2023-04-02T00:33:29;101331.99;;;4.85;100.00
57290;BME280;43523;53.022;-1.178;2023-04-02T00:34:36;101332.16;;;4.77;100.00
57290;BME280;43523;53.022;-1.178;2023-04-02T00:35:39;101336.25;;;4.73;100.00
57290;BME280;43523;53.022;-1.178;2023-04-02T00:36:44;101338.37;;;4.59;100.00
57290;BME280;43523;53.022;-1.178;2023-04-02T00:37:48;101340.97;;;4.64;100.00
57290;BME280;43523;53.022;-1.178;2023-04-02T00:38:52;101338.01;;;4.22;100.00
57290;BME280;43523;53.022;-1.178;2023-04-02T00:40:00;101343.61;;;4.47;100.00
57290;BME280;43523;53.022;-1.178;2023-04-02T00:41:05;101343.06;;;4.45;100.00
57290;BME280;43523;53.022;-1.178;2023-04-02T00:42:11;101345.75;;;4.26;100.00
57290;BME280;43523;53.022;-1.178;2023-04-02T00:43:15;101348.24;;;4.60;100.00
57290;BME280;43523;53.022;-1.178;2023-04-02T00:44:17;101346.49;;;4.52;100.00
57290;BME280;43523;53.022;-1.178;2023-04-02T00:45:24;101350.71;;;4.66;100.00
57290;BME280;43523;53.022;-1.178;2023-04-02T00:46:30;101351.91;;;4.77;100.00
57290;BME280;43523;53.022;-1.178;2023-04-02T00:47:36;101352.99;;;5.02;100.00
57290;BME280;43523;53.022;-1.178;2023-04-02T00:48:44;101352.74;;;4.90;100.00
57290;BME280;43523;53.022;-1.178;2023-04-02T00:49:57;101358.93;;;5.04;100.00
57290;BME280;43523;53.022;-1.178;2023-04-02T00:51:12;101358.24;;;4.76;100.00
57290;BME280;43523;53.022;-1.178;2023-04-02T00:52:17;101363.28;;;5.35;100.00
57290;BME280;43523;53.022;-1.178;2023-04-02T00:53:24;101362.59;;;5.23;100.00
57290;BME280;43523;53.022;-1.178;2023-04-02T00:54:33;101363.54;;;5.44;100.00
57290;BME280;43523;53.022;-1.178;2023-04-02T00:55:39;101365.11;;;5.40;100.00
57290;BME280;43523;53.022;-1.178;2023-04-02T00:56:45;101364.34;;;4.81;100.00
57290;BME280;43523;53.022;-1.178;2023-04-02T00:57:49;101368.13;;;4.89;100.00
57290;BME280;43523;53.022;-1.178;2023-04-02T00:58:54;101367.44;;;4.75;100.00
57290;BME280;43523;53.022;-1.178;2023-04-02T00:59:59;101370.78;;;4.48;100.00
57290;BME280;43523;53.022;-1.178;2023-04-02T01:01:13;101366.73;;;4.53;100.00
57290;BME280;43523;53.022;-1.178;2023-04-02T01:02:23;101372.66;;;4.38;100.00
57290;BME280;43523;53.022;-1.178;2023-04-02T01:03:30;101371.44;;;4.59;100.00
57290;BME280;43523;53.022;-1.178;2023-04-02T01:04:34;101374.92;;;4.58;100.00
57290;BME280;43523;53.022;-1.178;2023-04-02T01:05:36;101377.19;;;5.06;100.00
57290;BME280;43523;53.022;-1.178;2023-04-02T01:06:38;101381.11;;;4.49;100.00
57290;BME280;43523;53.022;-1.178;2023-04-02T01:07:50;101380.40;;;4.87;100.00
57290;BME280;43523;53.022;-1.178;2023-04-02T01:09:06;101386.14;;;4.46;100.00
57290;BME280;43523;53.022;-1.178;2023-04-02T01:10:23;101386.85;;;4.57;100.00
57290;BME280;43523;53.022;-1.178;2023-04-02T01:11:42;101392.22;;;4.65;100.00
57290;BME280;43523;53.022;-1.178;2023-04-02T01:12:56;101390.75;;;4.50;100.00
57290;BME280;43523;53.022;-1.178;2023-04-02T01:14:08;101391.72;;;4.54;100.00
57290;BME280;43523;53.022;-1.178;2023-04-02T01:15:18;101394.19;;;4.63;100.00
57290;BME280;43523;53.022;-1.178;2023-04-02T01:16:30;101395.36;;;4.16;100.00
57290;BME280;43523;53.022;-1.178;2023-04-02T01:17:45;101393.63;;;4.55;100.00
57290;BME280;43523;53.022;-1.178;2023-04-02T01:18:53;101396.64;;;4.68;100.00
57290;BME280;43523;53.022;-1.178;2023-04-02T01:20:14;101397.54;;;5.07;100.00
57290;BME280;43523;53.022;-1.178;2023-04-02T01:21:30;101398.15;;;4.66;100.00
57290;BME280;43523;53.022;-1.178;2023-04-02T01:22:41;101398.28;;;4.96;100.00
57290;BME280;43523;53.022;-1.178;2023-04-02T01:23:53;101402.17;;;4.44;100.00
57290;BME280;43523;53.022;-1.178;2023-04-02T01:24:57;101405.95;;;4.63;100.00
57290;BME280;43523;53.022;-1.178;2023-04-02T01:26:05;101405.70;;;4.16;100.00
57290;BME280;43523;53.022;-1.178;2023-04-02T01:27:16;101409.72;;;4.26;100.00
57290;BME280;43523;53.022;-1.178;2023-04-02T01:28:24;101410.19;;;4.39;100.00
57290;BME280;43523;53.022;-1.178;2023-04-02T01:29:30;101413.44;;;3.86;100.00
57290;BME280;43523;53.022;-1.178;2023-04-02T01:30:35;101409.13;;;4.24;100.00
57290;BME280;43523;53.022;-1.178;2023-04-02T01:31:38;101412.87;;;4.02;100.00
57290;BME280;43523;53.022;-1.178;2023-04-02T01:32:43;101411.50;;;4.33;100.00
57290;BME280;43523;53.022;-1.178;2023-04-02T01:33:47;101409.09;;;4.33;100.00
57290;BME280;43523;53.022;-1.178;2023-04-02T01:34:50;101411.35;;;4.71;100.00
57290;BME280;43523;53.022;-1.178;2023-04-02T01:35:59;101411.06;;;4.52;100.00
57290;BME280;43523;53.022;-1.178;2023-04-02T01:37:12;101410.33;;;4.52;100.00
57290;BME280;43523;53.022;-1.178;2023-04-02T01:38:24;101410.18;;;4.63;100.00
57290;BME280;43523;53.022;-1.178;2023-04-02T01:39:38;101413.45;;;4.81;100.00
57290;BME280;43523;53.022;-1.178;2023-04-02T01:40:46;101411.94;;;4.38;100.00
57290;BME280;43523;53.022;-1.178;2023-04-02T01:41:56;101414.12;;;4.29;100.00
57290;BME280;43523;53.022;-1.178;2023-04-02T01:43:12;101416.81;;;4.31;100.00
57290;BME280;43523;53.022;-1.178;2023-04-02T01:44:21;101417.30;;;4.29;100.00
57290;BME280;43523;53.022;-1.178;2023-04-02T01:45:26;101418.39;;;4.29;100.00
57290;BME280;43523;53.022;-1.178;2023-04-02T01:46:30;101419.03;;;4.60;100.00
57290;BME280;43523;53.022;-1.178;2023-04-02T01:47:33;101421.80;;;4.26;100.00
57290;BME280;43523;53.022;-1.178;2023-04-02T01:48:35;101420.89;;;4.37;100.00
57290;BME280;43523;53.022;-1.178;2023-04-02T01:49:41;101421.98;;;4.30;100.00
57290;BME280;43523;53.022;-1.178;2023-04-02T01:50:47;101422.58;;;4.25;100.00
57290;BME280;43523;53.022;-1.178;2023-04-02T01:51:52;101426.14;;;4.15;100.00
57290;BME280;43523;53.022;-1.178;2023-04-02T01:52:57;101426.50;;;4.21;100.00
57290;BME280;43523;53.022;-1.178;2023-04-02T01:54:03;101426.18;;;3.98;100.00
57290;BME280;43523;53.022;-1.178;2023-04-02T01:55:08;101426.42;;;4.29;100.00
57290;BME280;43523;53.022;-1.178;2023-04-02T01:56:10;101431.11;;;4.40;100.00
57290;BME280;43523;53.022;-1.178;2023-04-02T01:57:13;101429.83;;;4.21;100.00
57290;BME280;43523;53.022;-1.178;2023-04-02T01:58:18;101427.33;;;4.34;100.00
57290;BME280;43523;53.022;-1.178;2023-04-02T01:59:22;101425.02;;;4.27;100.00
57290;BME280;43523;53.022;-1.178;2023-04-02T02:00:27;101427.83;;;4.09;100.00
57290;BME280;43523;53.022;-1.178;2023-04-02T02:01:32;101431.27;;;3.80;100.00
57290;BME280;43523;53.022;-1.178;2023-04-02T02:02:36;101433.55;;;4.12;100.00
57290;BME280;43523;53.022;-1.178;2023-04-02T02:03:40;101432.92;;;4.05;100.00
57290;BME280;43523;53.022;-1.178;2023-04-02T02:04:44;101436.76;;;3.97;100.00
57290;BME280;43523;53.022;-1.178;2023-04-02T02:05:46;101438.82;;;4.06;100.00
57290;BME280;43523;53.022;-1.178;2023-04-02T02:06:49;101440.47;;;4.12;100.00
57290;BME280;43523;53.022;-1.178;2023-04-02T02:07:53;101445.54;;;4.43;100.00
57290;BME280;43523;53.022;-1.178;2023-04-02T02:08:59;101448.96;;;4.11;100.00
57290;BME280;43523;53.022;-1.178;2023-04-02T02:10:03;101456.56;;;4.28;100.00
57290;BME280;43523;53.022;-1.178;2023-04-02T02:11:12;101454.35;;;3.96;100.00
57290;BME280;43523;53.022;-1.178;2023-04-02T02:12:15;101455.54;;;4.13;100.00
57290;BME280;43523;53.022;-1.178;2023-04-02T02:13:17;101457.16;;;4.13;100.00
57290;BME280;43523;53.022;-1.178;2023-04-02T02:14:22;101460.64;;;4.11;100.00
57290;BME280;43523;53.022;-1.178;2023-04-02T02:15:25;101460.96;;;4.46;100.00
57290;BME280;43523;53.022;-1.178;2023-04-02T02:16:29;101465.15;;;4.21;100.00
57290;BME280;43523;53.022;-1.178;2023-04-02T02:17:31;101461.66;;;4.23;100.00
57290;BME280;43523;53.022;-1.178;2023-04-02T02:18:34;101463.25;;;4.10;100.00
57290;BME280;43523;53.022;-1.178;2023-04-02T02:19:38;101469.93;;;3.66;100.00
57290;BME280;43523;53.022;-1.178;2023-04-02T02:20:43;101470.75;;;4.07;100.00
57290;BME280;43523;53.022;-1.178;2023-04-02T02:21:49;101471.70;;;3.86;100.00
57290;BME280;43523;53.022;-1.178;2023-04-02T02:22:54;101470.06;;;4.46;100.00
57290;BME280;43523;53.022;-1.178;2023-04-02T02:23:57;101474.47;;;4.48;100.00
57290;BME280;43523;53.022;-1.178;2023-04-02T02:25:03;101474.37;;;4.39;100.00
57290;BME280;43523;53.022;-1.178;2023-04-02T02:26:07;101477.45;;;4.13;100.00
57290;BME280;43523;53.022;-1.178;2023-04-02T02:27:53;101475.87;;;4.25;100.00
57290;BME280;43523;53.022;-1.178;2023-04-02T02:28:57;101484.46;;;4.04;100.00
57290;BME280;43523;53.022;-1.178;2023-04-02T02:30:03;101486.48;;;3.90;100.00
57290;BME280;43523;53.022;-1.178;2023-04-02T02:31:12;101488.10;;;3.85;100.00
57290;BME280;43523;53.022;-1.178;2023-04-02T02:32:20;101487.42;;;4.03;100.00
57290;BME280;43523;53.022;-1.178;2023-04-02T02:33:26;101489.08;;;4.27;100.00
57290;BME280;43523;53.022;-1.178;2023-04-02T02:34:35;101491.19;;;4.09;100.00
57290;BME280;43523;53.022;-1.178;2023-04-02T02:35:45;101491.88;;;4.18;100.00
57290;BME280;43523;53.022;-1.178;2023-04-02T02:36:53;101488.18;;;4.77;100.00
57290;BME280;43523;53.022;-1.178;2023-04-02T02:38:05;101487.58;;;4.90;100.00
57290;BME280;43523;53.022;-1.178;2023-04-02T02:39:16;101486.83;;;4.75;100.00
57290;BME280;43523;53.022;-1.178;2023-04-02T02:40:26;101486.11;;;4.92;100.00
57290;BME280;43523;53.022;-1.178;2023-04-02T02:41:36;101486.22;;;4.39;100.00
57290;BME280;43523;53.022;-1.178;2023-04-02T02:42:42;101488.31;;;4.35;100.00
57290;BME280;43523;53.022;-1.178;2023-04-02T02:43:54;101489.33;;;4.53;100.00
57290;BME280;43523;53.022;-1.178;2023-04-02T02:45:00;101489.80;;;4.67;100.00
57290;BME280;43523;53.022;-1.178;2023-04-02T02:46:05;101493.08;;;4.33;100.00
57290;BME280;43523;53.022;-1.178;2023-04-02T02:47:13;101493.67;;;4.62;100.00
57290;BME280;43523;53.022;-1.178;2023-04-02T02:48:19;101498.28;;;4.68;100.00
57290;BME280;43523;53.022;-1.178;2023-04-02T02:49:26;101496.34;;;5.16;100.00
57290;BME280;43523;53.022;-1.178;2023-04-02T02:50:31;101498.41;;;4.97;100.00
57290;BME280;43523;53.022;-1.178;2023-04-02T02:51:41;101501.76;;;5.02;100.00
57290;BME280;43523;53.022;-1.178;2023-04-02T02:52:49;101505.63;;;4.78;100.00
57290;BME280;43523;53.022;-1.178;2023-04-02T02:53:56;101510.61;;;4.56;100.00
57290;BME280;43523;53.022;-1.178;2023-04-02T02:55:04;101512.34;;;4.87;100.00
57290;BME280;43523;53.022;-1.178;2023-04-02T02:56:08;101512.76;;;4.95;100.00
57290;BME280;43523;53.022;-1.178;2023-04-02T02:57:12;101513.11;;;4.98;100.00
57290;BME280;43523;53.022;-1.178;2023-04-02T02:58:17;101513.82;;;4.80;100.00
57290;BME280;43523;53.022;-1.178;2023-04-02T02:59:20;101516.52;;;4.09;100.00
57290;BME280;43523;53.022;-1.178;2023-04-02T03:00:24;101517.57;;;4.33;100.00
57290;BME280;43523;53.022;-1.178;2023-04-02T03:01:28;101521.15;;;4.27;100.00
57290;BME280;43523;53.022;-1.178;2023-04-02T03:02:35;101525.10;;;4.22;100.00
57290;BME280;43523;53.022;-1.178;2023-04-02T03:03:38;101518.89;;;4.12;100.00
57290;BME280;43523;53.022;-1.178;2023-04-02T03:04:44;101524.40;;;3.92;100.00
57290;BME280;43523;53.022;-1.178;2023-04-02T03:05:51;101522.84;;;4.65;100.00
57290;BME280;43523;53.022;-1.178;2023-04-02T03:06:55;101523.83;;;4.31;100.00
57290;BME280;43523;53.022;-1.178;2023-04-02T03:08:01;101526.13;;;4.13;100.00
57290;BME280;43523;53.022;-1.178;2023-04-02T03:09:12;101531.16;;;3.96;100.00
57290;BME280;43523;53.022;-1.178;2023-04-02T03:10:21;101532.97;;;4.08;100.00
57290;BME280;43523;53.022;-1.178;2023-04-02T03:11:35;101532.84;;;4.29;100.00
57290;BME280;43523;53.022;-1.178;2023-04-02T03:12:42;101531.68;;;3.79;100.00
57290;BME280;43523;53.022;-1.178;2023-04-02T03:13:48;101536.97;;;3.93;100.00
57290;BME280;43523;53.022;-1.178;2023-04-02T03:14:57;101539.40;;;3.72;100.00
57290;BME280;43523;53.022;-1.178;2023-04-02T03:16:07;101543.52;;;3.52;100.00
57290;BME280;43523;53.022;-1.178;2023-04-02T03:17:15;101538.68;;;3.83;100.00
57290;BME280;43523;53.022;-1.178;2023-04-02T03:18:33;101544.30;;;3.50;100.00
57290;BME280;43523;53.022;-1.178;2023-04-02T03:19:42;101548.64;;;3.36;100.00
57290;BME280;43523;53.022;-1.178;2023-04-02T03:20:48;101544.71;;;3.45;100.00
57290;BME280;43523;53.022;-1.178;2023-04-02T03:21:55;101546.53;;;3.53;100.00
57290;BME280;43523;53.022;-1.178;2023-04-02T03:23:05;101550.59;;;3.53;100.00
57290;BME280;43523;53.022;-1.178;2023-04-02T03:24:13;101549.53;;;3.58;100.00
57290;BME280;43523;53.022;-1.178;2023-04-02T03:25:26;101548.80;;;3.53;100.00
57290;BME280;43523;53.022;-1.178;2023-04-02T03:26:34;101550.97;;;3.33;100.00
57290;BME280;43523;53.022;-1.178;2023-04-02T03:27:42;101551.88;;;3.56;100.00
57290;BME280;43523;53.022;-1.178;2023-04-02T03:28:51;101555.85;;;3.77;100.00
57290;BME280;43523;53.022;-1.178;2023-04-02T03:30:08;101560.03;;;3.67;100.00
57290;BME280;43523;53.022;-1.178;2023-04-02T03:31:23;101563.93;;;4.10;100.00
57290;BME280;43523;53.022;-1.178;2023-04-02T03:32:29;101568.24;;;3.75;100.00
57290;BME280;43523;53.022;-1.178;2023-04-02T03:33:36;101572.03;;;3.94;100.00
57290;BME280;43523;53.022;-1.178;2023-04-02T03:34:44;101572.74;;;3.80;100.00
57290;BME280;43523;53.022;-1.178;2023-04-02T03:35:54;101576.86;;;3.84;100.00
57290;BME280;43523;53.022;-1.178;2023-04-02T03:37:00;101577.71;;;3.56;100.00
57290;BME280;43523;53.022;-1.178;2023-04-02T03:38:05;101579.48;;;3.62;100.00
57290;BME280;43523;53.022;-1.178;2023-04-02T03:39:13;101580.23;;;3.78;100.00
57290;BME280;43523;53.022;-1.178;2023-04-02T03:40:22;101582.68;;;3.92;100.00
57290;BME280;43523;53.022;-1.178;2023-04-02T03:41:32;101584.67;;;3.79;100.00
57290;BME280;43523;53.022;-1.178;2023-04-02T03:42:43;101586.33;;;4.12;100.00
57290;BME280;43523;53.022;-1.178;2023-04-02T03:43:50;101588.09;;;3.78;100.00
57290;BME280;43523;53.022;-1.178;2023-04-02T03:44:56;101592.49;;;4.14;100.00
57290;BME280;43523;53.022;-1.178;2023-04-02T03:46:08;101594.19;;;4.04;100.00
57290;BME280;43523;53.022;-1.178;2023-04-02T03:47:16;101594.96;;;4.33;100.00
57290;BME280;43523;53.022;-1.178;2023-04-02T03:48:25;101596.70;;;4.48;100.00
57290;BME280;43523;53.022;-1.178;2023-04-02T03:49:33;101598.95;;;4.45;100.00
57290;BME280;43523;53.022;-1.178;2023-04-02T03:50:45;101601.35;;;4.20;100.00
57290;BME280;43523;53.022;-1.178;2023-04-02T03:51:53;101603.69;;;4.24;100.00
57290;BME280;43523;53.022;-1.178;2023-04-02T03:52:58;101604.95;;;4.21;100.00
57290;BME280;43523;53.022;-1.178;2023-04-02T03:54:02;101610.39;;;3.75;100.00
57290;BME280;43523;53.022;-1.178;2023-04-02T03:55:11;101612.32;;;4.11;100.00
57290;BME280;43523;53.022;-1.178;2023-04-02T03:56:24;101609.46;;;3.97;100.00
57290;BME280;43523;53.022;-1.178;2023-04-02T03:57:31;101613.55;;;3.84;100.00
57290;BME280;43523;53.022;-1.178;2023-04-02T03:58:40;101614.00;;;3.72;100.00
57290;BME280;43523;53.022;-1.178;2023-04-02T03:59:53;101612.65;;;3.74;100.00
57290;BME280;43523;53.022;-1.178;2023-04-02T04:01:03;101614.50;;;3.97;100.00
57290;BME280;43523;53.022;-1.178;2023-04-02T04:02:26;101614.52;;;3.43;100.00
57290;BME280;43523;53.022;-1.178;2023-04-02T04:03:39;101616.07;;;3.57;100.00
57290;BME280;43523;53.022;-1.178;2023-04-02T04:04:44;101615.46;;;4.01;100.00
57290;BME280;43523;53.022;-1.178;2023-04-02T04:05:49;101618.36;;;3.81;100.00
57290;BME280;43523;53.022;-1.178;2023-04-02T04:06:54;101618.63;;;3.85;100.00
57290;BME280;43523;53.022;-1.178;2023-04-02T04:08:01;101622.11;;;3.67;100.00
57290;BME280;43523;53.022;-1.178;2023-04-02T04:09:08;101622.40;;;3.67;100.00
57290;BME280;43523;53.022;-1.178;2023-04-02T04:10:16;101624.73;;;3.59;100.00
57290;BME280;43523;53.022;-1.178;2023-04-02T04:11:24;101627.59;;;3.55;100.00
57290;BME280;43523;53.022;-1.178;2023-04-02T04:12:30;101628.87;;;3.46;100.00
57290;BME280;43523;53.022;-1.178;2023-04-02T04:13:38;101629.93;;;3.31;100.00
57290;BME280;43523;53.022;-1.178;2023-04-02T04:14:43;101630.70;;;3.73;100.00
57290;BME280;43523;53.022;-1.178;2023-04-02T04:15:53;101632.17;;;3.42;100.00
57290;BME280;43523;53.022;-1.178;2023-04-02T04:17:02;101633.85;;;3.27;100.00
57290;BME280;43523;53.022;-1.178;2023-04-02T04:18:11;101633.66;;;3.62;100.00
57290;BME280;43523;53.022;-1.178;2023-04-02T04:19:21;101632.10;;;3.84;100.00
57290;BME280;43523;53.022;-1.178;2023-04-02T04:20:30;101633.35;;;3.86;100.00
57290;BME280;43523;53.022;-1.178;2023-04-02T04:21:35;101636.92;;;3.90;100.00
57290;BME280;43523;53.022;-1.178;2023-04-02T04:22:38;101637.03;;;3.63;100.00
57290;BME280;43523;53.022;-1.178;2023-04-02T04:23:46;101638.97;;;3.62;100.00
57290;BME280;43523;53.022;-1.178;2023-04-02T04:24:51;101638.40;;;3.55;100.00
57290;BME280;43523;53.022;-1.178;2023-04-02T04:25:57;101639.19;;;3.61;100.00
57290;BME280;43523;53.022;-1.178;2023-04-02T04:27:05;101642.33;;;3.61;100.00
57290;BME280;43523;53.022;-1.178;2023-04-02T04:28:15;101645.65;;;3.95;100.00
57290;BME280;43523;53.022;-1.178;2023-04-02T04:29:32;101646.37;;;3.41;100.00
57290;BME280;43523;53.022;-1.178;2023-04-02T04:30:47;101650.07;;;3.61;100.00
57290;BME280;43523;53.022;-1.178;2023-04-02T04:31:51;101652.74;;;3.87;100.00
57290;BME280;43523;53.022;-1.178;2023-04-02T04:32:55;101654.64;;;3.95;100.00
57290;BME280;43523;53.022;-1.178;2023-04-02T04:34:05;101655.13;;;4.03;100.00
57290;BME280;43523;53.022;-1.178;2023-04-02T04:35:22;101656.06;;;3.37;100.00
57290;BME280;43523;53.022;-1.178;2023-04-02T04:36:29;101657.56;;;4.04;100.00
57290;BME280;43523;53.022;-1.178;2023-04-02T04:37:35;101655.32;;;3.84;100.00
57290;BME280;43523;53.022;-1.178;2023-04-02T04:38:40;101655.60;;;3.72;100.00
57290;BME280;43523;53.022;-1.178;2023-04-02T04:39:48;101657.78;;;3.70;100.00
57290;BME280;43523;53.022;-1.178;2023-04-02T04:40:54;101662.49;;;3.36;100.00
57290;BME280;43523;53.022;-1.178;2023-04-02T04:42:01;101658.96;;;3.59;100.00
57290;BME280;43523;53.022;-1.178;2023-04-02T04:43:09;101661.80;;;3.41;100.00
57290;BME280;43523;53.022;-1.178;2023-04-02T04:44:19;101661.94;;;3.65;100.00
57290;BME280;43523;53.022;-1.178;2023-04-02T04:45:36;101664.52;;;3.43;100.00
57290;BME280;43523;53.022;-1.178;2023-04-02T04:46:43;101669.92;;;3.69;100.00
57290;BME280;43523;53.022;-1.178;2023-04-02T04:47:50;101674.30;;;3.77;100.00
57290;BME280;43523;53.022;-1.178;2023-04-02T04:48:59;101673.89;;;3.59;100.00
57290;BME280;43523;53.022;-1.178;2023-04-02T04:50:07;101674.62;;;3.56;100.00
57290;BME280;43523;53.022;-1.178;2023-04-02T04:51:19;101677.96;;;3.62;100.00
57290;BME280;43523;53.022;-1.178;2023-04-02T04:52:24;101680.74;;;3.51;100.00
57290;BME280;43523;53.022;-1.178;2023-04-02T04:53:28;101682.60;;;3.50;100.00
57290;BME280;43523;53.022;-1.178;2023-04-02T04:54:31;101686.65;;;3.80;100.00
57290;BME280;43523;53.022;-1.178;2023-04-02T04:55:36;101691.85;;;3.93;100.00
57290;BME280;43523;53.022;-1.178;2023-04-02T04:56:39;101689.59;;;4.00;100.00
57290;BME280;43523;53.022;-1.178;2023-04-02T04:57:48;101692.19;;;4.03;100.00
57290;BME280;43523;53.022;-1.178;2023-04-02T04:58:54;101695.96;;;4.22;100.00
57290;BME280;43523;53.022;-1.178;2023-04-02T05:00:05;101695.21;;;3.82;100.00
57290;BME280;43523;53.022;-1.178;2023-04-02T05:01:14;101698.20;;;3.53;100.00
57290;BME280;43523;53.022;-1.178;2023-04-02T05:02:23;101702.41;;;3.98;100.00
57290;BME280;43523;53.022;-1.178;2023-04-02T05:03:31;101701.14;;;4.09;100.00
57290;BME280;43523;53.022;-1.178;2023-04-02T05:04:38;101702.97;;;3.94;100.00
57290;BME280;43523;53.022;-1.178;2023-04-02T05:05:41;101704.79;;;3.70;100.00
57290;BME280;43523;53.022;-1.178;2023-04-02T05:06:50;101706.37;;;3.98;100.00
57290;BME280;43523;53.022;-1.178;2023-04-02T05:07:57;101709.73;;;4.09;100.00
57290;BME280;43523;53.022;-1.178;2023-04-02T05:09:05;101714.15;;;4.06;100.00
57290;BME280;43523;53.022;-1.178;2023-04-02T05:10:14;101713.16;;;4.44;100.00
57290;BME280;43523;53.022;-1.178;2023-04-02T05:11:25;101715.75;;;4.22;100.00
57290;BME280;43523;53.022;-1.178;2023-04-02T05:12:33;101713.46;;;4.44;100.00
57290;BME280;43523;53.022;-1.178;2023-04-02T05:13:41;101719.02;;;4.41;100.00
57290;BME280;43523;53.022;-1.178;2023-04-02T05:14:49;101721.36;;;4.65;100.00
57290;BME280;43523;53.022;-1.178;2023-04-02T05:16:00;101727.11;;;4.26;100.00
57290;BME280;43523;53.022;-1.178;2023-04-02T05:17:07;101727.77;;;4.20;100.00
57290;BME280;43523;53.022;-1.178;2023-04-02T05:18:26;101730.29;;;4.23;100.00
57290;BME280;43523;53.022;-1.178;2023-04-02T05:19:34;101735.31;;;4.49;100.00
57290;BME280;43523;53.022;-1.178;2023-04-02T05:20:45;101734.65;;;4.98;100.00
57290;BME280;43523;53.022;-1.178;2023-04-02T05:21:52;101731.83;;;4.72;100.00
57290;BME280;43523;53.022;-1.178;2023-04-02T05:22:59;101733.46;;;4.32;100.00
57290;BME280;43523;53.022;-1.178;2023-04-02T05:24:26;101733.76;;;4.17;100.00
57290;BME280;43523;53.022;-1.178;2023-04-02T05:25:31;101732.60;;;3.69;100.00
57290;BME280;43523;53.022;-1.178;2023-04-02T05:26:39;101733.82;;;3.58;100.00
57290;BME280;43523;53.022;-1.178;2023-04-02T05:27:52;101734.69;;;3.79;100.00
57290;BME280;43523;53.022;-1.178;2023-04-02T05:29:00;101738.83;;;3.75;100.00
57290;BME280;43523;53.022;-1.178;2023-04-02T05:30:14;101742.62;;;4.23;100.00
57290;BME280;43523;53.022;-1.178;2023-04-02T05:31:24;101748.79;;;3.72;100.00
57290;BME280;43523;53.022;-1.178;2023-04-02T05:32:30;101752.41;;;3.81;100.00
57290;BME280;43523;53.022;-1.178;2023-04-02T05:33:35;101755.39;;;3.65;100.00
57290;BME280;43523;53.022;-1.178;2023-04-02T05:34:38;101760.54;;;3.69;100.00
57290;BME280;43523;53.022;-1.178;2023-04-02T05:35:46;101761.11;;;3.72;100.00
57290;BME280;43523;53.022;-1.178;2023-04-02T05:36:49;101762.96;;;4.13;100.00
57290;BME280;43523;53.022;-1.178;2023-04-02T05:37:52;101767.23;;;3.81;100.00
57290;BME280;43523;53.022;-1.178;2023-04-02T05:38:55;101765.40;;;3.97;100.00
57290;BME280;43523;53.022;-1.178;2023-04-02T05:40:03;101764.46;;;4.05;100.00
57290;BME280;43523;53.022;-1.178;2023-04-02T05:41:20;101766.41;;;4.42;100.00
57290;BME280;43523;53.022;-1.178;2023-04-02T05:42:24;101769.77;;;4.20;100.00
57290;BME280;43523;53.022;-1.178;2023-04-02T05:43:30;101766.54;;;4.32;100.00
57290;BME280;43523;53.022;-1.178;2023-04-02T05:44:34;101771.65;;;4.10;100.00
57290;BME280;43523;53.022;-1.178;2023-04-02T05:45:40;101771.59;;;4.09;100.00
57290;BME280;43523;53.022;-1.178;2023-04-02T05:46:48;101771.38;;;3.95;100.00
57290;BME280;43523;53.022;-1.178;2023-04-02T05:47:53;101775.62;;;3.98;100.00
57290;BME280;43523;53.022;-1.178;2023-04-02T05:48:58;101778.20;;;3.99;100.00